Time;durP1;ratioP1;P1;durP2;ratioP2;P2;SDS_P1;SDS_P2;PMS_P1;PMS_P2;Temp;Humidity;BMP_temperature;BMP_pressure;BME280_temperature;BME280_humidity;BME280_pressure;Samples;Min_cycle;Max_cycle;Signal;HPM_P1;HPM_P2
2021/07/01 00:02:08;;;;;;;11.13;7.83;;;;;;;;;;5097237;28;20488;-53
2021/07/01 00:04:43;;;;;;;12.73;8.60;;;;;;;;;;5117015;28;20498;-59
2021/07/01 00:07:11;;;;;;;13.17;9.17;;;;;;;;;;5100973;28;20497;-58
2021/07/01 00:09:38;;;;;;;11.10;8.73;;;;;;;;;;5111469;28;20449;-56
2021/07/01 00:12:11;;;;;;;13.13;8.60;;;;;;;;;;5116675;28;20444;-59
2021/07/01 00:14:39;;;;;;;13.27;9.40;;;;;;;;;;5116935;28;20479;-54
2021/07/01 00:17:07;;;;;;;18.70;11.07;;;;;;;;;;5117116;28;20451;-56
2021/07/01 00:19:35;;;;;;;11.77;8.67;;;;;;;;;;5115227;28;20469;-55
2021/07/01 00:22:02;;;;;;;10.80;7.67;;;;;;;;;;5116693;28;20471;-58
2021/07/01 00:24:37;;;;;;;11.10;8.13;;;;;;;;;;5100960;28;20437;-56
2021/07/01 00:27:05;;;;;;;19.83;8.40;;;;;;;;;;5112282;28;20453;-57
2021/07/01 00:29:32;;;;;;;11.73;8.47;;;;;;;;;;5116967;28;20693;-53
2021/07/01 00:32:12;;;;;;;10.67;6.60;;;;;;;;;;5110689;28;20468;-57
2021/07/01 00:34:40;;;;;;;12.77;8.10;;;;;;;;;;5110288;28;20486;-58
2021/07/01 00:37:07;;;;;;;13.13;7.60;;;;;;;;;;5116777;28;20542;-58
2021/07/01 00:39:43;;;;;;;11.40;7.13;;;;;;;;;;5113963;28;20448;-57
2021/07/01 00:42:11;;;;;;;9.47;6.23;;;;;;;;;;5117483;28;20513;-54
2021/07/01 00:44:38;;;;;;;11.10;6.57;;;;;;;;;;5117365;28;20471;-58
2021/07/01 00:47:07;;;;;;;9.30;6.23;;;;;;;;;;5114825;28;20452;-53
2021/07/01 00:49:36;;;;;;;16.83;11.77;;;;;;;;;;5112283;28;20467;-53
2021/07/01 00:52:03;;;;;;;10.57;6.60;;;;;;;;;;5117298;28;20905;-56
2021/07/01 00:54:40;;;;;;;9.00;6.40;;;;;;;;;;5100318;28;20464;-56
2021/07/01 00:57:08;;;;;;;9.33;6.60;;;;;;;;;;5111401;28;20444;-52
2021/07/01 00:59:35;;;;;;;8.00;5.60;;;;;;;;;;5114062;28;20467;-57
2021/07/01 01:02:15;;;;;;;10.50;6.00;;;;;;;;;;5117575;28;20464;-54
2021/07/01 01:04:44;;;;;;;8.40;5.60;;;;;;;;;;5113878;28;20506;-54
2021/07/01 01:07:11;;;;;;;11.07;6.07;;;;;;;;;;5115508;28;20467;-56
2021/07/01 01:12:44;;;;;;;11.07;7.50;;;;;;;;;;5106181;28;20411;-55
2021/07/01 01:15:12;;;;;;;8.67;5.90;;;;;;;;;;5100884;28;20459;-57
2021/07/01 01:17:49;;;;;;;10.53;6.33;;;;;;;;;;5108816;28;20474;-51
2021/07/01 01:20:18;;;;;;;8.03;6.40;;;;;;;;;;5110242;28;20450;-54
2021/07/01 01:22:47;;;;;;;9.67;7.00;;;;;;;;;;5115951;28;20463;-52
2021/07/01 01:25:20;;;;;;;8.40;6.57;;;;;;;;;;5116398;28;20451;-55
2021/07/01 01:27:47;;;;;;;9.80;7.33;;;;;;;;;;5104102;28;20444;-60
2021/07/01 01:30:16;;;;;;;8.83;6.70;;;;;;;;;;5118497;28;20520;-51
2021/07/01 01:32:43;;;;;;;15.47;8.13;;;;;;;;;;5095781;28;20447;-55
2021/07/01 01:35:11;;;;;;;14.80;7.97;;;;;;;;;;5097212;28;20487;-56
2021/07/01 01:37:53;;;;;;;16.70;8.23;;;;;;;;;;5116721;28;20436;-49
2021/07/01 01:40:20;;;;;;;14.83;8.50;;;;;;;;;;5107897;28;20455;-53
2021/07/01 01:42:48;;;;;;;12.40;7.10;;;;;;;;;;5107082;28;20489;-56
2021/07/01 01:45:30;;;;;;;11.90;8.10;;;;;;;;;;5116586;28;20457;-59
2021/07/01 01:47:57;;;;;;;10.13;7.70;;;;;;;;;;5116314;28;20457;-53
2021/07/01 01:50:25;;;;;;;10.63;7.20;;;;;;;;;;5108056;28;20455;-49
2021/07/01 01:52:54;;;;;;;14.83;8.43;;;;;;;;;;5106186;28;20478;-58
2021/07/01 01:55:22;;;;;;;12.13;9.10;;;;;;;;;;5116745;28;20465;-54
2021/07/01 01:57:50;;;;;;;11.40;7.90;;;;;;;;;;5116393;28;20467;-60
2021/07/01 02:00:29;;;;;;;12.87;7.53;;;;;;;;;;5116448;28;20485;-59
2021/07/01 02:02:57;;;;;;;10.70;7.57;;;;;;;;;;5116306;28;20475;-55
2021/07/01 02:05:25;;;;;;;14.57;7.63;;;;;;;;;;5116013;28;20563;-56
2021/07/01 02:07:52;;;;;;;12.40;7.83;;;;;;;;;;5115427;28;20478;-54
2021/07/01 02:10:22;;;;;;;7.83;5.70;;;;;;;;;;5115790;28;20458;-54
2021/07/01 02:12:50;;;;;;;17.83;8.83;;;;;;;;;;5116605;28;20465;-54
2021/07/01 02:15:26;;;;;;;9.60;7.40;;;;;;;;;;5114309;28;20477;-53
2021/07/01 02:17:56;;;;;;;10.37;7.37;;;;;;;;;;5107154;28;20467;-55
2021/07/01 02:20:25;;;;;;;11.50;6.87;;;;;;;;;;5115949;28;20492;-54
2021/07/01 02:23:09;;;;;;;10.97;7.23;;;;;;;;;;5104274;28;20476;-52
2021/07/01 02:28:50;;;;;;;12.40;7.80;;;;;;;;;;5112544;28;20419;-53
2021/07/01 02:31:17;;;;;;;11.73;7.57;;;;;;;;;;5115925;28;20454;-50
2021/07/01 02:33:44;;;;;;;11.23;7.37;;;;;;;;;;5115109;28;20475;-52
2021/07/01 02:36:12;;;;;;;8.57;6.53;;;;;;;;;;5116175;28;20484;-50
2021/07/01 02:38:39;;;;;;;12.90;7.03;;;;;;;;;;5116016;28;20483;-53
2021/07/01 02:41:06;;;;;;;11.33;7.80;;;;;;;;;;5115597;28;20470;-54
2021/07/01 02:43:47;;;;;;;12.43;7.20;;;;;;;;;;5115999;28;20470;-59
2021/07/01 02:46:16;;;;;;;17.50;7.93;;;;;;;;;;5115806;28;20432;-57
2021/07/01 02:48:44;;;;;;;11.53;8.80;;;;;;;;;;5115207;28;20459;-54
2021/07/01 02:51:34;;;;;;;11.63;6.80;;;;;;;;;;5112326;28;20476;-56
2021/07/01 02:54:01;;;;;;;11.70;7.23;;;;;;;;;;5097037;28;20472;-55
2021/07/01 02:56:40;;;;;;;13.73;8.20;;;;;;;;;;5095758;28;20460;-57
2021/07/01 03:02:13;;;;;;;9.73;6.93;;;;;;;;;;5099644;28;20507;-59
2021/07/01 03:04:41;;;;;;;13.50;8.20;;;;;;;;;;5094956;28;20470;-55
2021/07/01 03:07:23;;;;;;;17.20;8.07;;;;;;;;;;5097474;28;20440;-56
2021/07/01 03:09:51;;;;;;;11.13;6.87;;;;;;;;;;5096867;28;20468;-57
2021/07/01 03:12:18;;;;;;;12.73;6.90;;;;;;;;;;5103173;28;20455;-52
2021/07/01 03:14:51;;;;;;;10.93;6.50;;;;;;;;;;5112620;28;20506;-58
2021/07/01 03:17:23;;;;;;;13.40;7.73;;;;;;;;;;5115711;28;20732;-61
2021/07/01 03:19:51;;;;;;;9.23;6.90;;;;;;;;;;5099412;28;20460;-53
2021/07/01 03:25:22;;;;;;;12.73;8.10;;;;;;;;;;5111553;28;20477;-58
2021/07/01 03:27:50;;;;;;;9.87;7.10;;;;;;;;;;5113085;28;20455;-56
2021/07/01 03:33:24;;;;;;;14.40;7.60;;;;;;;;;;5106523;28;20542;-60
2021/07/01 03:35:52;;;;;;;14.23;7.17;;;;;;;;;;5114896;28;20439;-56
2021/07/01 03:38:21;;;;;;;12.03;7.70;;;;;;;;;;5114588;28;20473;-57
2021/07/01 03:40:48;;;;;;;9.70;7.20;;;;;;;;;;5099193;28;20451;-56
2021/07/01 03:43:16;;;;;;;14.23;8.00;;;;;;;;;;5098793;28;20494;-57
2021/07/01 03:45:45;;;;;;;10.50;6.97;;;;;;;;;;5107937;28;20435;-61
2021/07/01 03:48:13;;;;;;;10.60;7.57;;;;;;;;;;5103613;28;20474;-56
2021/07/01 03:53:45;;;;;;;13.33;8.67;;;;;;;;;;5112219;28;20454;-59
2021/07/01 03:59:12;;;;;;;10.90;8.00;;;;;;;;;;5112300;28;20451;-56
2021/07/01 04:01:40;;;;;;;9.30;7.90;;;;;;;;;;5106738;28;20496;-55
2021/07/01 04:04:08;;;;;;;11.90;8.13;;;;;;;;;;5109000;28;20540;-60
2021/07/01 04:06:54;;;;;;;13.00;9.63;;;;;;;;;;5118345;28;20443;-56
2021/07/01 04:09:24;;;;;;;9.93;7.40;;;;;;;;;;5116201;28;20482;-56
2021/07/01 04:11:51;;;;;;;9.83;7.20;;;;;;;;;;5117852;28;20548;-57
2021/07/01 04:17:22;;;;;;;16.20;9.03;;;;;;;;;;5109049;28;20485;-57
2021/07/01 04:19:49;;;;;;;11.03;7.73;;;;;;;;;;5108942;28;20465;-58
2021/07/01 04:22:26;;;;;;;13.20;8.13;;;;;;;;;;5121907;28;20485;-54
2021/07/01 04:25:13;;;;;;;13.00;7.67;;;;;;;;;;5117485;28;20622;-58
2021/07/01 04:27:42;;;;;;;12.17;9.60;;;;;;;;;;5115354;28;20451;-57
2021/07/01 04:30:09;;;;;;;18.87;10.33;;;;;;;;;;5117162;28;20469;-57
2021/07/01 04:35:37;;;;;;;13.77;10.43;;;;;;;;;;5096648;28;20431;-53
2021/07/01 04:38:05;;;;;;;16.00;11.33;;;;;;;;;;5112657;28;20547;-63
2021/07/01 04:40:33;;;;;;;16.70;11.20;;;;;;;;;;5116889;28;20454;-53
2021/07/01 04:46:10;;;;;;;19.00;12.10;;;;;;;;;;5113835;28;20474;-52
2021/07/01 04:48:37;;;;;;;17.53;10.27;;;;;;;;;;5117498;28;20808;-54
2021/07/01 04:51:09;;;;;;;27.80;11.33;;;;;;;;;;5117492;28;20465;-59
2021/07/01 04:53:38;;;;;;;21.33;11.67;;;;;;;;;;5100375;28;20508;-56
2021/07/01 04:56:42;;;;;;;18.77;11.40;;;;;;;;;;5116375;28;20416;-55
2021/07/01 05:02:16;;;;;;;14.87;10.70;;;;;;;;;;5112531;28;20442;-56
2021/07/01 05:04:45;;;;;;;16.37;11.80;;;;;;;;;;5096039;28;20515;-56
2021/07/01 05:07:13;;;;;;;19.20;11.40;;;;;;;;;;5095805;28;20444;-58
2021/07/01 05:09:41;;;;;;;19.13;11.13;;;;;;;;;;5096508;28;20456;-56
2021/07/01 05:12:09;;;;;;;18.03;11.13;;;;;;;;;;5107352;28;20467;-57
2021/07/01 05:14:37;;;;;;;20.20;11.90;;;;;;;;;;5100135;28;20460;-53
2021/07/01 05:17:11;;;;;;;14.13;9.97;;;;;;;;;;5114659;28;20435;-55
2021/07/01 05:19:39;;;;;;;19.83;11.17;;;;;;;;;;5116216;28;20526;-57
2021/07/01 05:22:08;;;;;;;15.03;9.47;;;;;;;;;;5116082;28;20451;-55
2021/07/01 05:25:11;;;;;;;19.90;10.60;;;;;;;;;;5100330;28;20487;-59
2021/07/01 05:27:39;;;;;;;16.10;9.57;;;;;;;;;;5114591;28;20442;-55
2021/07/01 05:30:13;;;;;;;17.00;8.90;;;;;;;;;;5098514;28;20454;-56
2021/07/01 05:32:53;;;;;;;18.57;9.53;;;;;;;;;;5113424;28;20461;-59
2021/07/01 05:35:40;;;;;;;16.43;10.00;;;;;;;;;;5094776;28;20452;-54
2021/07/01 05:38:17;;;;;;;13.20;9.43;;;;;;;;;;5106109;28;20439;-55
2021/07/01 05:40:45;;;;;;;16.77;9.67;;;;;;;;;;5109719;28;20540;-56
2021/07/01 05:43:13;;;;;;;13.93;8.97;;;;;;;;;;5094395;28;20544;-55
2021/07/01 05:48:54;;;;;;;23.93;12.10;;;;;;;;;;5111177;28;20431;-51
2021/07/01 05:51:38;;;;;;;19.60;10.60;;;;;;;;;;5095602;28;20472;-57
2021/07/01 05:54:35;;;;;;;17.03;10.20;;;;;;;;;;5113080;28;20800;-61
2021/07/01 05:57:07;;;;;;;13.87;10.63;;;;;;;;;;5103462;28;20473;-48
2021/07/01 05:59:50;;;;;;;19.80;10.00;;;;;;;;;;5114744;28;20455;-58
2021/07/01 06:02:18;;;;;;;20.37;11.33;;;;;;;;;;5114321;28;20469;-56
2021/07/01 06:04:45;;;;;;;18.47;10.07;;;;;;;;;;5114428;28;20495;-58
2021/07/01 06:07:18;;;;;;;16.03;11.03;;;;;;;;;;5114219;28;20516;-52
2021/07/01 06:09:49;;;;;;;17.50;10.20;;;;;;;;;;5098947;28;20452;-57
2021/07/01 06:12:18;;;;;;;19.20;11.47;;;;;;;;;;5114263;28;20497;-56
2021/07/01 06:14:46;;;;;;;19.83;10.13;;;;;;;;;;5114842;28;20763;-53
2021/07/01 06:17:18;;;;;;;18.73;10.57;;;;;;;;;;5113023;28;20447;-53
2021/07/01 06:19:49;;;;;;;28.93;10.40;;;;;;;;;;5114223;28;20477;-53
2021/07/01 06:22:25;;;;;;;27.00;10.90;;;;;;;;;;5100976;28;20722;-55
2021/07/01 06:25:11;;;;;;;18.70;10.13;;;;;;;;;;5094188;28;20475;-59
2021/07/01 06:27:41;;;;;;;16.50;9.47;;;;;;;;;;5113764;28;20474;-59
2021/07/01 06:30:15;;;;;;;15.27;8.77;;;;;;;;;;5103764;28;20463;-55
2021/07/01 06:32:45;;;;;;;23.50;9.10;;;;;;;;;;5114525;28;20439;-62
2021/07/01 06:35:14;;;;;;;13.63;8.40;;;;;;;;;;5113900;28;20506;-60
2021/07/01 06:37:44;;;;;;;17.27;7.87;;;;;;;;;;5114418;28;20450;-58
2021/07/01 06:40:26;;;;;;;16.93;8.43;;;;;;;;;;5113929;28;20463;-52
2021/07/01 06:42:58;;;;;;;16.40;9.67;;;;;;;;;;5114221;28;20466;-57
2021/07/01 06:45:27;;;;;;;12.87;8.30;;;;;;;;;;5114536;28;20455;-57
2021/07/01 06:47:56;;;;;;;14.40;9.13;;;;;;;;;;5111569;28;20451;-58
2021/07/01 06:50:24;;;;;;;16.33;9.70;;;;;;;;;;5110917;28;20475;-52
2021/07/01 06:53:15;;;;;;;20.77;9.77;;;;;;;;;;5098680;28;20722;-55
2021/07/01 06:55:45;;;;;;;15.00;8.53;;;;;;;;;;5109252;28;20514;-51
2021/07/01 06:58:14;;;;;;;13.63;8.93;;;;;;;;;;5114595;28;20493;-58
2021/07/01 07:01:18;;;;;;;18.07;9.37;;;;;;;;;;5127551;28;20457;-56
2021/07/01 07:03:46;;;;;;;21.83;8.93;;;;;;;;;;5113759;28;20517;-53
2021/07/01 07:06:13;;;;;;;17.20;9.50;;;;;;;;;;5114155;28;20443;-56
2021/07/01 07:09:07;;;;;;;15.03;8.47;;;;;;;;;;5114401;28;20455;-56
2021/07/01 07:11:36;;;;;;;17.23;8.57;;;;;;;;;;5112394;28;20490;-58
2021/07/01 07:14:05;;;;;;;14.70;8.70;;;;;;;;;;5114182;28;20445;-54
2021/07/01 07:16:42;;;;;;;17.50;8.40;;;;;;;;;;5114290;28;20467;-57
2021/07/01 07:19:09;;;;;;;12.53;6.80;;;;;;;;;;5103233;28;20506;-56
2021/07/01 07:21:40;;;;;;;13.77;9.00;;;;;;;;;;5118192;28;20459;-63
2021/07/01 07:24:09;;;;;;;10.60;6.23;;;;;;;;;;5118284;28;20581;-56
2021/07/01 07:26:37;;;;;;;12.60;7.90;;;;;;;;;;5117558;28;20444;-53
2021/07/01 07:29:18;;;;;;;14.70;8.10;;;;;;;;;;5117780;28;20502;-60
2021/07/01 07:31:46;;;;;;;12.30;7.87;;;;;;;;;;5101723;28;20831;-55
2021/07/01 07:34:14;;;;;;;11.93;7.23;;;;;;;;;;5116208;28;20435;-53
2021/07/01 07:39:47;;;;;;;12.80;6.77;;;;;;;;;;5109477;28;20550;-57
2021/07/01 07:42:21;;;;;;;22.17;10.40;;;;;;;;;;5117713;28;20441;-56
2021/07/01 07:44:55;;;;;;;13.97;7.80;;;;;;;;;;5107491;28;20483;-54
2021/07/01 07:47:42;;;;;;;15.93;8.27;;;;;;;;;;5089134;28;20539;-59
2021/07/01 07:50:11;;;;;;;20.13;8.37;;;;;;;;;;5083008;28;20632;-59
2021/07/01 07:52:40;;;;;;;15.20;8.17;;;;;;;;;;5076725;28;20437;-55
2021/07/01 07:55:09;;;;;;;22.13;9.53;;;;;;;;;;5091496;28;20444;-58
2021/07/01 07:57:47;;;;;;;20.17;7.27;;;;;;;;;;5108100;28;20448;-55
2021/07/01 08:00:16;;;;;;;11.97;6.90;;;;;;;;;;5100088;28;20419;-53
2021/07/01 08:02:50;;;;;;;15.43;7.57;;;;;;;;;;5105484;28;20464;-54
2021/07/01 08:05:32;;;;;;;16.33;6.57;;;;;;;;;;5068781;28;20491;-55
2021/07/01 08:08:00;;;;;;;12.73;6.40;;;;;;;;;;5086118;28;20448;-56
2021/07/01 08:10:30;;;;;;;9.53;5.20;;;;;;;;;;5096334;28;20515;-55
2021/07/01 08:13:08;;;;;;;13.00;5.23;;;;;;;;;;5111098;28;20439;-57
2021/07/01 08:15:38;;;;;;;14.77;5.83;;;;;;;;;;5115947;28;20442;-53
2021/07/01 08:18:10;;;;;;;14.37;6.57;;;;;;;;;;5112139;28;20455;-58
2021/07/01 08:20:38;;;;;;;16.80;8.67;;;;;;;;;;5095957;28;20464;-54
2021/07/01 08:23:06;;;;;;;19.00;7.73;;;;;;;;;;5077788;28;20472;-58
2021/07/01 08:25:33;;;;;;;11.00;6.40;;;;;;;;;;5091305;28;20487;-57
2021/07/01 08:28:15;;;;;;;12.30;7.30;;;;;;;;;;5116620;28;20475;-56
2021/07/01 08:30:44;;;;;;;11.60;6.43;;;;;;;;;;5115355;28;20465;-58
2021/07/01 08:33:12;;;;;;;11.13;6.50;;;;;;;;;;5101396;28;20470;-53
2021/07/01 08:35:44;;;;;;;17.30;5.97;;;;;;;;;;5096252;28;20446;-61
2021/07/01 08:38:11;;;;;;;20.77;7.53;;;;;;;;;;5094441;28;20483;-53
2021/07/01 08:40:39;;;;;;;14.47;6.90;;;;;;;;;;5095977;28;20479;-59
2021/07/01 08:43:26;;;;;;;15.23;6.33;;;;;;;;;;5088768;28;20445;-55
2021/07/01 08:46:05;;;;;;;15.00;6.23;;;;;;;;;;5075407;28;20468;-51
2021/07/01 08:48:41;;;;;;;12.40;5.60;;;;;;;;;;5074861;28;20461;-55
2021/07/01 08:51:35;;;;;;;8.40;5.80;;;;;;;;;;5095169;28;20655;-56
2021/07/01 08:54:16;;;;;;;12.67;6.40;;;;;;;;;;5095494;28;20460;-56
2021/07/01 08:56:44;;;;;;;11.60;7.17;;;;;;;;;;5074956;28;20491;-61
2021/07/01 08:59:12;;;;;;;10.97;6.00;;;;;;;;;;5075238;28;20469;-57
2021/07/01 09:01:42;;;;;;;12.47;5.70;;;;;;;;;;5075311;28;20502;-57
2021/07/01 09:04:12;;;;;;;13.90;5.70;;;;;;;;;;5085924;28;20511;-54
2021/07/01 09:06:40;;;;;;;8.60;4.83;;;;;;;;;;5094886;28;20626;-53
2021/07/01 09:09:09;;;;;;;10.67;5.97;;;;;;;;;;5090348;28;20469;-56
2021/07/01 09:12:03;;;;;;;17.50;7.50;;;;;;;;;;5078275;28;20455;-57
2021/07/01 09:14:32;;;;;;;14.27;6.47;;;;;;;;;;5094989;28;20452;-56
2021/07/01 09:17:03;;;;;;;10.57;5.17;;;;;;;;;;5094666;28;20436;-49
2021/07/01 09:19:32;;;;;;;14.43;5.80;;;;;;;;;;5095159;28;20550;-58
2021/07/01 09:22:01;;;;;;;10.87;6.27;;;;;;;;;;5091144;28;20421;-61
2021/07/01 09:24:49;;;;;;;13.07;5.17;;;;;;;;;;5089881;28;20470;-55
2021/07/01 09:27:17;;;;;;;14.73;5.57;;;;;;;;;;5095734;28;20428;-55
2021/07/01 09:29:46;;;;;;;11.20;5.57;;;;;;;;;;5094526;28;20478;-50
2021/07/01 09:32:38;;;;;;;13.67;7.50;;;;;;;;;;5095554;28;20816;-58
2021/07/01 09:35:14;;;;;;;14.93;8.27;;;;;;;;;;5105467;28;20484;-59
2021/07/01 09:37:43;;;;;;;13.50;8.27;;;;;;;;;;5095430;28;20455;-61
2021/07/01 09:40:27;;;;;;;12.40;7.30;;;;;;;;;;5094733;28;20456;-58
2021/07/01 09:42:57;;;;;;;10.57;7.00;;;;;;;;;;5095214;28;20468;-55
2021/07/01 09:45:27;;;;;;;10.97;6.33;;;;;;;;;;5094538;28;20918;-57
2021/07/01 09:48:04;;;;;;;10.80;6.73;;;;;;;;;;5098812;28;20491;-56
2021/07/01 09:50:35;;;;;;;27.93;8.30;;;;;;;;;;5114585;28;20459;-55
2021/07/01 09:53:03;;;;;;;14.20;6.43;;;;;;;;;;5114488;28;20761;-61
2021/07/01 09:55:50;;;;;;;9.93;5.93;;;;;;;;;;5114794;28;20439;-56
2021/07/01 09:58:21;;;;;;;12.70;7.33;;;;;;;;;;5085076;28;20448;-56
2021/07/01 10:00:49;;;;;;;18.60;7.20;;;;;;;;;;5082269;28;20452;-57
2021/07/01 10:03:36;;;;;;;11.30;6.07;;;;;;;;;;5084201;28;20544;-60
2021/07/01 10:06:15;;;;;;;12.63;7.00;;;;;;;;;;5093509;28;20483;-60
2021/07/01 10:08:56;;;;;;;9.30;6.00;;;;;;;;;;5093895;28;20487;-59
2021/07/01 10:11:41;;;;;;;12.80;6.20;;;;;;;;;;5108344;28;20502;-58
2021/07/01 10:17:18;;;;;;;17.87;6.60;;;;;;;;;;5094874;28;20442;-59
2021/07/01 10:19:46;;;;;;;12.40;6.70;;;;;;;;;;5093052;28;20448;-60
2021/07/01 10:22:20;;;;;;;14.83;6.13;;;;;;;;;;5092914;28;20452;-51
2021/07/01 10:24:55;;;;;;;10.87;5.97;;;;;;;;;;5094754;28;20536;-57
2021/07/01 10:27:43;;;;;;;10.30;6.50;;;;;;;;;;5094445;28;20444;-51
2021/07/01 10:30:15;;;;;;;14.33;7.87;;;;;;;;;;5086477;28;20456;-54
2021/07/01 10:32:43;;;;;;;17.50;6.10;;;;;;;;;;5086346;28;20456;-59
2021/07/01 10:35:28;;;;;;;14.43;6.90;;;;;;;;;;5092790;28;20444;-54
2021/07/01 10:38:04;;;;;;;17.63;6.80;;;;;;;;;;5093517;28;20493;-59
2021/07/01 10:40:32;;;;;;;11.63;5.10;;;;;;;;;;5078322;28;20618;-55
2021/07/01 10:43:10;;;;;;;13.67;5.60;;;;;;;;;;5081391;28;20452;-60
2021/07/01 10:45:38;;;;;;;16.90;6.63;;;;;;;;;;5078713;28;20573;-56
2021/07/01 10:48:28;;;;;;;12.50;6.03;;;;;;;;;;5081558;28;20680;-56
2021/07/01 10:51:07;;;;;;;15.10;5.60;;;;;;;;;;5091187;28;20444;-58
2021/07/01 10:53:39;;;;;;;15.70;5.37;;;;;;;;;;5073115;28;20466;-60
2021/07/01 10:56:16;;;;;;;15.10;6.13;;;;;;;;;;5097450;28;20590;-57
2021/07/01 10:58:45;;;;;;;11.67;6.67;;;;;;;;;;5097376;28;20466;-56
2021/07/01 11:04:28;;;;;;;14.03;7.23;;;;;;;;;;5107583;28;20483;-58
2021/07/01 11:07:07;;;;;;;11.03;5.53;;;;;;;;;;5108119;28;20514;-60
2021/07/01 11:09:56;;;;;;;14.00;5.87;;;;;;;;;;5121567;28;20443;-59
2021/07/01 11:12:25;;;;;;;16.80;8.60;;;;;;;;;;5115912;28;20448;-58
2021/07/01 11:14:54;;;;;;;10.90;7.03;;;;;;;;;;5114549;28;20475;-58
2021/07/01 11:18:00;;;;;;;12.50;7.40;;;;;;;;;;5110292;28;20447;-57
2021/07/01 11:20:27;;;;;;;11.63;6.50;;;;;;;;;;5130519;28;20466;-57
2021/07/01 11:22:56;;;;;;;12.10;7.50;;;;;;;;;;5136714;28;20472;-59
2021/07/01 11:25:37;;;;;;;12.80;7.60;;;;;;;;;;5112018;28;20546;-59
2021/07/01 11:28:15;;;;;;;11.33;6.73;;;;;;;;;;5115145;28;20450;-55
2021/07/01 11:30:59;;;;;;;16.90;7.17;;;;;;;;;;5112722;28;20442;-58
2021/07/01 11:33:31;;;;;;;15.00;8.07;;;;;;;;;;5118279;28;20465;-60
2021/07/01 11:39:07;;;;;;;9.80;5.73;;;;;;;;;;5097697;28;20426;-55
2021/07/01 11:41:36;;;;;;;13.53;6.87;;;;;;;;;;5106074;28;20465;-56
2021/07/01 11:44:08;;;;;;;13.73;6.20;;;;;;;;;;5101570;28;20454;-61
2021/07/01 11:46:36;;;;;;;10.63;6.20;;;;;;;;;;5111207;28;20573;-56
2021/07/01 11:49:07;;;;;;;12.60;8.30;;;;;;;;;;5113478;28;20463;-55
2021/07/01 11:51:35;;;;;;;10.90;5.50;;;;;;;;;;5110015;28;20448;-58
2021/07/01 11:54:02;;;;;;;10.07;5.40;;;;;;;;;;5116197;28;20459;-57
2021/07/01 11:56:54;;;;;;;12.80;7.27;;;;;;;;;;5109326;28;20444;-55
2021/07/01 11:59:22;;;;;;;15.33;6.10;;;;;;;;;;5100348;28;20517;-57
2021/07/01 12:01:52;;;;;;;6.93;4.10;;;;;;;;;;5115985;28;20472;-60
2021/07/01 12:04:20;;;;;;;12.07;5.80;;;;;;;;;;5114324;28;20470;-59
2021/07/01 12:06:56;;;;;;;9.30;6.00;;;;;;;;;;5105047;28;20462;-56
2021/07/01 12:09:33;;;;;;;10.40;4.97;;;;;;;;;;5105499;28;20455;-52
2021/07/01 12:12:26;;;;;;;9.70;4.60;;;;;;;;;;5108904;28;20451;-59
2021/07/01 12:18:00;;;;;;;10.10;5.30;;;;;;;;;;5102348;28;20530;-54
2021/07/01 12:20:35;;;;;;;15.40;5.90;;;;;;;;;;5097178;28;20468;-55
2021/07/01 12:23:02;;;;;;;14.50;6.80;;;;;;;;;;5112695;28;20830;-59
2021/07/01 12:25:45;;;;;;;16.07;7.23;;;;;;;;;;5107405;28;20475;-56
2021/07/01 12:28:37;;;;;;;11.70;6.17;;;;;;;;;;5108657;28;20453;-57
2021/07/01 12:31:07;;;;;;;19.40;10.20;;;;;;;;;;5107166;28;20481;-59
2021/07/01 12:33:39;;;;;;;13.33;7.20;;;;;;;;;;5115902;28;20482;-55
2021/07/01 12:36:08;;;;;;;17.90;7.67;;;;;;;;;;5123813;28;20467;-55
2021/07/01 12:38:36;;;;;;;14.97;8.10;;;;;;;;;;5108651;28;20471;-57
2021/07/01 12:41:04;;;;;;;9.13;6.33;;;;;;;;;;5125199;28;20457;-56
2021/07/01 12:43:57;;;;;;;13.90;7.80;;;;;;;;;;5099418;28;20467;-56
2021/07/01 12:46:43;;;;;;;18.90;8.10;;;;;;;;;;5106547;28;20538;-57
2021/07/01 12:49:39;;;;;;;14.43;7.80;;;;;;;;;;5113121;28;20459;-56
2021/07/01 12:52:10;;;;;;;18.17;10.20;;;;;;;;;;5102226;28;20516;-58
2021/07/01 12:54:56;;;;;;;17.90;13.30;;;;;;;;;;5108656;28;20498;-57
2021/07/01 12:57:30;;;;;;;14.20;10.33;;;;;;;;;;5101230;28;20513;-55
2021/07/01 12:59:58;;;;;;;24.87;15.53;;;;;;;;;;5101546;28;20475;-59
2021/07/01 13:02:43;;;;;;;22.67;12.10;;;;;;;;;;5104069;28;20463;-58
2021/07/01 13:05:12;;;;;;;22.60;11.80;;;;;;;;;;5106511;28;20467;-51
2021/07/01 13:07:48;;;;;;;20.43;9.77;;;;;;;;;;5107075;28;20471;-53
2021/07/01 13:13:26;;;;;;;23.57;14.90;;;;;;;;;;5107280;28;20454;-60
2021/07/01 13:15:56;;;;;;;15.50;10.67;;;;;;;;;;5116563;28;20474;-55
2021/07/01 13:18:24;;;;;;;22.17;10.63;;;;;;;;;;5115862;28;20447;-56
2021/07/01 13:21:21;;;;;;;16.07;10.57;;;;;;;;;;5107138;28;20474;-62
2021/07/01 13:24:04;;;;;;;15.23;10.37;;;;;;;;;;5120996;28;20887;-56
2021/07/01 13:26:34;;;;;;;18.60;9.03;;;;;;;;;;5101882;28;20519;-63
2021/07/01 13:29:01;;;;;;;16.47;10.67;;;;;;;;;;5103788;28;20464;-59
2021/07/01 13:31:38;;;;;;;16.03;9.10;;;;;;;;;;5110664;28;20534;-58
2021/07/01 13:34:08;;;;;;;15.67;10.53;;;;;;;;;;5114082;28;20469;-62
2021/07/01 13:36:43;;;;;;;14.33;9.33;;;;;;;;;;5107502;28;20469;-60
2021/07/01 13:39:31;;;;;;;24.50;10.93;;;;;;;;;;5106866;28;20470;-58
2021/07/01 13:42:22;;;;;;;26.13;15.00;;;;;;;;;;5111158;28;20471;-55
2021/07/01 13:45:15;;;;;;;25.03;15.40;;;;;;;;;;5116622;28;20476;-59
2021/07/01 13:47:54;;;;;;;19.50;11.50;;;;;;;;;;5100434;28;20488;-61
2021/07/01 13:50:38;;;;;;;20.17;14.30;;;;;;;;;;5095894;28;20449;-55
2021/07/01 13:53:26;;;;;;;17.20;11.40;;;;;;;;;;5096769;28;20440;-57
2021/07/01 13:56:01;;;;;;;20.07;12.50;;;;;;;;;;5095662;28;20487;-58
2021/07/01 13:58:30;;;;;;;17.40;10.93;;;;;;;;;;5095309;28;20511;-60
2021/07/01 14:00:58;;;;;;;18.30;13.13;;;;;;;;;;5094898;28;20451;-52
2021/07/01 14:03:27;;;;;;;13.90;9.73;;;;;;;;;;5092600;28;20440;-58
2021/07/01 14:05:56;;;;;;;16.77;9.03;;;;;;;;;;5095213;28;20472;-58
2021/07/01 14:08:54;;;;;;;25.67;10.60;;;;;;;;;;5094426;28;20425;-53
2021/07/01 14:14:15;;;;;;;16.10;8.17;;;;;;;;;;5094854;28;20456;-54
2021/07/01 14:16:42;;;;;;;15.30;10.20;;;;;;;;;;5094501;28;20439;-53
2021/07/01 14:19:15;;;;;;;15.67;10.93;;;;;;;;;;5094528;28;20488;-54
2021/07/01 14:21:43;;;;;;;14.73;11.30;;;;;;;;;;5094336;28;20444;-58
2021/07/01 14:24:11;;;;;;;17.63;9.37;;;;;;;;;;5094566;28;20444;-61
2021/07/01 14:26:46;;;;;;;15.40;9.50;;;;;;;;;;5094738;28;20483;-52
2021/07/01 14:29:13;;;;;;;18.73;10.80;;;;;;;;;;5085384;28;20424;-55
2021/07/01 14:31:42;;;;;;;20.10;10.93;;;;;;;;;;5093043;28;20521;-58
2021/07/01 14:34:09;;;;;;;15.37;9.60;;;;;;;;;;5086488;28;20475;-59
2021/07/01 14:36:47;;;;;;;15.23;9.63;;;;;;;;;;5107948;28;20501;-59
2021/07/01 14:39:16;;;;;;;14.87;10.70;;;;;;;;;;5109116;28;20520;-57
2021/07/01 14:41:44;;;;;;;15.13;9.43;;;;;;;;;;5110238;28;20463;-55
2021/07/01 14:44:14;;;;;;;20.80;9.50;;;;;;;;;;5095138;28;20459;-56
2021/07/01 14:46:48;;;;;;;17.23;11.60;;;;;;;;;;5113626;28;20455;-55
2021/07/01 14:49:16;;;;;;;21.47;11.37;;;;;;;;;;5113546;28;20430;-60
2021/07/01 14:51:48;;;;;;;16.33;10.00;;;;;;;;;;5096250;28;20467;-59
2021/07/01 14:54:42;;;;;;;21.83;11.50;;;;;;;;;;5107501;28;20527;-61
2021/07/01 14:57:14;;;;;;;21.23;12.33;;;;;;;;;;5123045;28;20454;-57
2021/07/01 14:59:43;;;;;;;19.67;11.47;;;;;;;;;;5114449;28;20460;-51
2021/07/01 15:02:40;;;;;;;20.60;10.97;;;;;;;;;;5110905;28;20471;-58
2021/07/01 15:05:08;;;;;;;22.13;11.40;;;;;;;;;;5115407;28;20458;-53
2021/07/01 15:07:41;;;;;;;19.37;9.97;;;;;;;;;;5095466;28;20458;-53
2021/07/01 15:10:09;;;;;;;16.20;10.00;;;;;;;;;;5115240;28;20938;-55
2021/07/01 15:12:37;;;;;;;17.23;11.07;;;;;;;;;;5116999;28;20451;-57
2021/07/01 15:15:13;;;;;;;19.47;9.03;;;;;;;;;;5135536;28;20472;-60
2021/07/01 15:17:41;;;;;;;17.33;9.20;;;;;;;;;;5119581;28;20458;-58
2021/07/01 15:20:10;;;;;;;17.03;9.43;;;;;;;;;;5104725;28;20515;-56
2021/07/01 15:22:52;;;;;;;16.13;9.40;;;;;;;;;;5094402;28;20431;-58
2021/07/01 15:25:19;;;;;;;15.60;9.57;;;;;;;;;;5100099;28;20468;-60
2021/07/01 15:27:52;;;;;;;15.03;8.60;;;;;;;;;;5114675;28;20528;-50
2021/07/01 15:30:40;;;;;;;17.73;10.93;;;;;;;;;;5106730;28;20480;-58
2021/07/01 15:33:08;;;;;;;11.70;7.93;;;;;;;;;;5109009;28;20487;-61
2021/07/01 15:38:40;;;;;;;17.67;9.27;;;;;;;;;;5087124;28;20463;-57
2021/07/01 15:41:14;;;;;;;16.90;8.50;;;;;;;;;;5094490;28;20455;-55
2021/07/01 15:43:47;;;;;;;13.83;8.23;;;;;;;;;;5118527;28;20439;-59
2021/07/01 15:46:19;;;;;;;17.83;9.20;;;;;;;;;;5118474;28;20540;-53
2021/07/01 15:48:50;;;;;;;17.60;8.70;;;;;;;;;;5107897;28;20470;-52
2021/07/01 15:54:21;;;;;;;16.33;10.30;;;;;;;;;;5102979;28;20421;-54
2021/07/01 15:56:49;;;;;;;20.47;11.60;;;;;;;;;;5115038;28;20455;-59
2021/07/01 15:59:37;;;;;;;16.93;10.33;;;;;;;;;;5106550;28;20461;-55
2021/07/01 16:02:06;;;;;;;21.37;12.80;;;;;;;;;;5116969;28;20512;-47
2021/07/01 16:04:34;;;;;;;25.03;15.10;;;;;;;;;;5109766;28;20444;-53
2021/07/01 16:07:24;;;;;;;23.03;17.60;;;;;;;;;;5111849;28;20521;-60
2021/07/01 16:09:52;;;;;;;22.80;15.03;;;;;;;;;;5117920;28;20439;-58